sensor_id;sensor_type;location;lat;lon;timestamp;P1;durP1;ratioP1;P2;durP2;ratioP2
27979;SDS011;15315;50.836;4.430;2022-11-21T00:05:45;16.80;;;5.25;;
27979;SDS011;15315;50.836;4.430;2022-11-21T00:15:47;26.27;;;6.05;;
27979;SDS011;15315;50.836;4.430;2022-11-21T00:25:48;23.60;;;6.70;;
27979;SDS011;15315;50.836;4.430;2022-11-21T00:35:48;21.10;;;5.55;;
27979;SDS011;15315;50.836;4.430;2022-11-21T00:45:48;15.20;;;5.03;;
27979;SDS011;15315;50.836;4.430;2022-11-21T00:55:49;19.50;;;4.75;;
27979;SDS011;15315;50.836;4.430;2022-11-21T01:05:49;21.23;;;5.45;;
27979;SDS011;15315;50.836;4.430;2022-11-21T01:15:49;17.48;;;4.05;;
27979;SDS011;15315;50.836;4.430;2022-11-21T01:25:50;22.85;;;4.10;;
27979;SDS011;15315;50.836;4.430;2022-11-21T01:35:50;20.90;;;4.18;;
27979;SDS011;15315;50.836;4.430;2022-11-21T01:56:08;20.92;;;4.55;;
27979;SDS011;15315;50.836;4.430;2022-11-21T02:06:09;22.25;;;4.38;;
27979;SDS011;15315;50.836;4.430;2022-11-21T02:16:11;21.67;;;4.50;;
27979;SDS011;15315;50.836;4.430;2022-11-21T02:26:12;17.00;;;4.72;;
27979;SDS011;15315;50.836;4.430;2022-11-21T02:46:49;16.27;;;4.15;;
27979;SDS011;15315;50.836;4.430;2022-11-21T02:56:51;20.85;;;3.75;;
27979;SDS011;15315;50.836;4.430;2022-11-21T03:06:52;13.52;;;2.90;;
27979;SDS011;15315;50.836;4.430;2022-11-21T03:16:52;15.60;;;2.92;;
27979;SDS011;15315;50.836;4.430;2022-11-21T03:26:52;12.38;;;2.75;;
27979;SDS011;15315;50.836;4.430;2022-11-21T03:36:53;15.88;;;3.28;;
27979;SDS011;15315;50.836;4.430;2022-11-21T03:46:53;15.90;;;3.30;;
27979;SDS011;15315;50.836;4.430;2022-11-21T03:56:53;11.27;;;3.50;;
27979;SDS011;15315;50.836;4.430;2022-11-21T04:06:54;13.02;;;3.97;;
27979;SDS011;15315;50.836;4.430;2022-11-21T04:16:54;16.45;;;3.90;;
27979;SDS011;15315;50.836;4.430;2022-11-21T04:26:55;17.63;;;4.65;;
27979;SDS011;15315;50.836;4.430;2022-11-21T04:36:55;11.27;;;3.80;;
27979;SDS011;15315;50.836;4.430;2022-11-21T04:46:55;13.38;;;3.53;;
27979;SDS011;15315;50.836;4.430;2022-11-21T04:56:56;16.13;;;3.92;;
27979;SDS011;15315;50.836;4.430;2022-11-21T05:06:56;9.45;;;3.63;;
27979;SDS011;15315;50.836;4.430;2022-11-21T05:16:56;13.65;;;3.50;;
27979;SDS011;15315;50.836;4.430;2022-11-21T05:26:57;13.10;;;3.45;;
27979;SDS011;15315;50.836;4.430;2022-11-21T05:36:57;20.10;;;3.33;;
27979;SDS011;15315;50.836;4.430;2022-11-21T05:46:58;8.93;;;2.90;;
27979;SDS011;15315;50.836;4.430;2022-11-21T05:56:58;12.98;;;3.38;;
27979;SDS011;15315;50.836;4.430;2022-11-21T06:06:59;15.10;;;3.53;;
27979;SDS011;15315;50.836;4.430;2022-11-21T06:16:59;15.13;;;3.22;;
27979;SDS011;15315;50.836;4.430;2022-11-21T06:27:00;13.82;;;4.20;;
27979;SDS011;15315;50.836;4.430;2022-11-21T06:37:00;13.00;;;3.47;;
27979;SDS011;15315;50.836;4.430;2022-11-21T06:47:00;14.80;;;3.97;;
27979;SDS011;15315;50.836;4.430;2022-11-21T06:57:01;12.30;;;4.20;;
27979;SDS011;15315;50.836;4.430;2022-11-21T07:07:01;14.50;;;3.75;;
27979;SDS011;15315;50.836;4.430;2022-11-21T07:17:01;18.83;;;4.28;;
27979;SDS011;15315;50.836;4.430;2022-11-21T07:27:02;17.83;;;4.25;;
27979;SDS011;15315;50.836;4.430;2022-11-21T07:37:02;14.25;;;4.22;;
27979;SDS011;15315;50.836;4.430;2022-11-21T07:47:03;18.95;;;4.97;;
27979;SDS011;15315;50.836;4.430;2022-11-21T07:57:03;21.70;;;6.22;;
27979;SDS011;15315;50.836;4.430;2022-11-21T08:07:03;25.60;;;6.57;;
27979;SDS011;15315;50.836;4.430;2022-11-21T08:17:04;26.65;;;6.88;;
27979;SDS011;15315;50.836;4.430;2022-11-21T08:27:05;22.70;;;6.18;;
27979;SDS011;15315;50.836;4.430;2022-11-21T08:37:05;18.95;;;5.65;;
27979;SDS011;15315;50.836;4.430;2022-11-21T08:47:06;19.45;;;4.72;;
27979;SDS011;15315;50.836;4.430;2022-11-21T08:57:06;19.85;;;4.85;;
27979;SDS011;15315;50.836;4.430;2022-11-21T09:07:07;15.57;;;4.95;;
27979;SDS011;15315;50.836;4.430;2022-11-21T09:17:11;14.88;;;4.00;;
27979;SDS011;15315;50.836;4.430;2022-11-21T09:27:31;18.30;;;4.30;;
27979;SDS011;15315;50.836;4.430;2022-11-21T09:37:36;14.50;;;3.92;;
27979;SDS011;15315;50.836;4.430;2022-11-21T09:47:39;17.45;;;3.97;;
27979;SDS011;15315;50.836;4.430;2022-11-21T09:57:42;17.02;;;4.28;;
27979;SDS011;15315;50.836;4.430;2022-11-21T10:07:45;16.17;;;5.10;;
27979;SDS011;15315;50.836;4.430;2022-11-21T10:18:47;15.07;;;6.28;;
27979;SDS011;15315;50.836;4.430;2022-11-21T10:28:19;16.50;;;7.57;;
27979;SDS011;15315;50.836;4.430;2022-11-21T10:38:27;20.15;;;8.20;;
27979;SDS011;15315;50.836;4.430;2022-11-21T10:48:28;19.23;;;8.30;;
27979;SDS011;15315;50.836;4.430;2022-11-21T10:58:34;15.40;;;8.02;;
27979;SDS011;15315;50.836;4.430;2022-11-21T11:08:48;20.15;;;8.00;;
27979;SDS011;15315;50.836;4.430;2022-11-21T11:18:57;24.20;;;7.50;;
27979;SDS011;15315;50.836;4.430;2022-11-21T11:39:09;18.20;;;6.93;;
27979;SDS011;15315;50.836;4.430;2022-11-21T11:49:37;27.17;;;6.05;;
27979;SDS011;15315;50.836;4.430;2022-11-21T12:00:41;16.30;;;5.60;;
27979;SDS011;15315;50.836;4.430;2022-11-21T12:10:27;16.95;;;5.38;;
27979;SDS011;15315;50.836;4.430;2022-11-21T12:20:34;24.45;;;5.30;;
27979;SDS011;15315;50.836;4.430;2022-11-21T13:02:08;14.57;;;4.25;;
27979;SDS011;15315;50.836;4.430;2022-11-21T13:22:52;15.93;;;3.65;;
27979;SDS011;15315;50.836;4.430;2022-11-21T13:32:56;13.45;;;3.88;;
27979;SDS011;15315;50.836;4.430;2022-11-21T14:13:56;11.13;;;2.80;;
27979;SDS011;15315;50.836;4.430;2022-11-21T14:23:59;5.30;;;2.05;;
27979;SDS011;15315;50.836;4.430;2022-11-21T14:34:03;8.65;;;2.42;;
27979;SDS011;15315;50.836;4.430;2022-11-21T14:44:05;13.60;;;2.90;;
27979;SDS011;15315;50.836;4.430;2022-11-21T14:54:14;13.13;;;2.83;;
27979;SDS011;15315;50.836;4.430;2022-11-21T15:04:17;14.77;;;3.07;;
27979;SDS011;15315;50.836;4.430;2022-11-21T15:14:34;13.60;;;3.10;;
27979;SDS011;15315;50.836;4.430;2022-11-21T15:24:42;14.48;;;3.33;;
27979;SDS011;15315;50.836;4.430;2022-11-21T15:34:42;12.02;;;2.90;;
27979;SDS011;15315;50.836;4.430;2022-11-21T15:44:59;15.45;;;3.60;;
27979;SDS011;15315;50.836;4.430;2022-11-21T15:55:01;9.02;;;2.65;;
27979;SDS011;15315;50.836;4.430;2022-11-21T16:05:01;12.18;;;2.83;;
27979;SDS011;15315;50.836;4.430;2022-11-21T16:15:02;11.43;;;2.85;;
27979;SDS011;15315;50.836;4.430;2022-11-21T16:25:03;13.35;;;3.63;;
27979;SDS011;15315;50.836;4.430;2022-11-21T16:35:04;19.50;;;3.42;;
27979;SDS011;15315;50.836;4.430;2022-11-21T16:45:05;22.25;;;3.47;;
27979;SDS011;15315;50.836;4.430;2022-11-21T16:55:05;21.60;;;4.28;;
27979;SDS011;15315;50.836;4.430;2022-11-21T17:05:06;18.05;;;3.70;;
27979;SDS011;15315;50.836;4.430;2022-11-21T17:15:11;12.38;;;3.70;;
27979;SDS011;15315;50.836;4.430;2022-11-21T17:25:13;19.65;;;4.10;;
27979;SDS011;15315;50.836;4.430;2022-11-21T17:35:14;20.10;;;5.10;;
27979;SDS011;15315;50.836;4.430;2022-11-21T17:45:14;18.27;;;3.70;;
27979;SDS011;15315;50.836;4.430;2022-11-21T17:55:14;22.77;;;5.57;;
27979;SDS011;15315;50.836;4.430;2022-11-21T18:05:15;12.80;;;2.97;;
27979;SDS011;15315;50.836;4.430;2022-11-21T18:15:15;16.42;;;3.53;;
27979;SDS011;15315;50.836;4.430;2022-11-21T18:25:16;13.88;;;3.08;;
27979;SDS011;15315;50.836;4.430;2022-11-21T18:35:16;14.48;;;3.42;;
27979;SDS011;15315;50.836;4.430;2022-11-21T18:45:16;18.55;;;3.50;;
27979;SDS011;15315;50.836;4.430;2022-11-21T18:55:17;16.85;;;3.60;;
27979;SDS011;15315;50.836;4.430;2022-11-21T19:05:17;18.98;;;3.35;;
27979;SDS011;15315;50.836;4.430;2022-11-21T19:15:17;14.00;;;3.50;;
27979;SDS011;15315;50.836;4.430;2022-11-21T19:25:19;18.35;;;4.10;;
27979;SDS011;15315;50.836;4.430;2022-11-21T19:35:19;17.80;;;4.72;;
27979;SDS011;15315;50.836;4.430;2022-11-21T19:45:22;18.65;;;4.60;;
27979;SDS011;15315;50.836;4.430;2022-11-21T19:55:22;14.50;;;3.85;;
27979;SDS011;15315;50.836;4.430;2022-11-21T20:05:25;11.48;;;3.30;;
27979;SDS011;15315;50.836;4.430;2022-11-21T20:15:25;11.02;;;3.22;;
27979;SDS011;15315;50.836;4.430;2022-11-21T20:25:26;10.82;;;2.90;;
27979;SDS011;15315;50.836;4.430;2022-11-21T20:35:27;5.57;;;2.45;;
27979;SDS011;15315;50.836;4.430;2022-11-21T20:45:27;7.95;;;2.80;;
27979;SDS011;15315;50.836;4.430;2022-11-21T20:55:28;8.32;;;2.70;;
27979;SDS011;15315;50.836;4.430;2022-11-21T21:05:29;9.32;;;3.10;;
27979;SDS011;15315;50.836;4.430;2022-11-21T21:15:31;6.85;;;2.63;;
27979;SDS011;15315;50.836;4.430;2022-11-21T21:25:32;5.80;;;2.50;;
27979;SDS011;15315;50.836;4.430;2022-11-21T21:35:34;6.85;;;2.80;;
27979;SDS011;15315;50.836;4.430;2022-11-21T21:45:35;9.43;;;3.15;;
27979;SDS011;15315;50.836;4.430;2022-11-21T21:55:35;13.10;;;3.22;;
27979;SDS011;15315;50.836;4.430;2022-11-21T22:05:36;13.43;;;3.03;;
27979;SDS011;15315;50.836;4.430;2022-11-21T22:15:36;13.23;;;3.88;;
27979;SDS011;15315;50.836;4.430;2022-11-21T22:25:37;18.38;;;4.32;;
27979;SDS011;15315;50.836;4.430;2022-11-21T22:35:37;19.17;;;3.97;;
27979;SDS011;15315;50.836;4.430;2022-11-21T22:45:37;13.95;;;3.00;;
27979;SDS011;15315;50.836;4.430;2022-11-21T22:55:38;26.90;;;3.70;;
27979;SDS011;15315;50.836;4.430;2022-11-21T23:05:38;16.95;;;3.60;;
27979;SDS011;15315;50.836;4.430;2022-11-21T23:15:38;29.88;;;4.70;;
27979;SDS011;15315;50.836;4.430;2022-11-21T23:25:39;27.30;;;4.43;;
27979;SDS011;15315;50.836;4.430;2022-11-21T23:35:40;24.10;;;4.05;;
27979;SDS011;15315;50.836;4.430;2022-11-21T23:45:42;18.08;;;3.78;;
27979;SDS011;15315;50.836;4.430;2022-11-21T23:55:44;27.27;;;3.95;;
